Terminal Aerodrome Forecast
Issued by NWS Lake Charles, LA

Home | Current Version | Previous Version | Text Only | Print | Product List | Glossary On
Versions: 1 2 3 4 5 6 7 8 9 10 11 12
000
FTUS44 KLCH 162329
TAFARA
TAF
KARA 162329Z 1700/1724 01015G21KT P6SM -FZRASNPL BKN015 OVC060
     FM170300 01012KT P6SM SCT015 OVC080
     FM170600 02009KT P6SM SKC=

USA.gov is the U.S. government's official web portal to all federal, state and local government web resources and services.